Terminal Aerodrome Forecast
Issued by NWS Grand Forks, ND

Home | Current Version | Previous Version | Text Only | Print | Product List | Glossary On
Versions: 1 2 3 4 5 6 7 8 9 10 11 12 13 14 15 16 17 18 19
000
FTUS43 KFGF 191400 AAB
TAFFAR
TAF AMD
KFAR 191408Z 1914/2012 31014KT P6SM VCSH OVC012
     FM191600 32014G23KT P6SM VCSH OVC018
     FM191800 32019G28KT P6SM OVC030
     FM200200 32015KT P6SM BKN050=

USA.gov is the U.S. government's official web portal to all federal, state and local government web resources and services.